sensor_id;sensor_type;location;lat;lon;timestamp;P1;durP1;ratioP1;P2;durP2;ratioP2
28756;SDS011;44294;48.282;14.282;2024-03-17T00:01:00;3.80;;;3.50;;
28756;SDS011;44294;48.282;14.282;2024-03-17T00:03:45;3.70;;;3.13;;
28756;SDS011;44294;48.282;14.282;2024-03-17T00:06:32;3.50;;;3.20;;
28756;SDS011;44294;48.282;14.282;2024-03-17T00:09:20;3.20;;;2.90;;
28756;SDS011;44294;48.282;14.282;2024-03-17T00:12:07;3.70;;;3.30;;
28756;SDS011;44294;48.282;14.282;2024-03-17T00:14:55;6.37;;;3.43;;
28756;SDS011;44294;48.282;14.282;2024-03-17T00:17:42;3.50;;;3.00;;
28756;SDS011;44294;48.282;14.282;2024-03-17T00:20:30;4.47;;;3.43;;
28756;SDS011;44294;48.282;14.282;2024-03-17T00:23:18;4.57;;;3.30;;
28756;SDS011;44294;48.282;14.282;2024-03-17T00:26:05;3.73;;;3.20;;
28756;SDS011;44294;48.282;14.282;2024-03-17T00:28:53;3.90;;;3.40;;
28756;SDS011;44294;48.282;14.282;2024-03-17T00:31:40;4.10;;;3.70;;
28756;SDS011;44294;48.282;14.282;2024-03-17T00:34:28;4.90;;;3.60;;
28756;SDS011;44294;48.282;14.282;2024-03-17T00:37:15;8.40;;;3.87;;
28756;SDS011;44294;48.282;14.282;2024-03-17T00:40:04;5.27;;;3.70;;
28756;SDS011;44294;48.282;14.282;2024-03-17T00:42:52;3.90;;;3.47;;
28756;SDS011;44294;48.282;14.282;2024-03-17T00:45:40;4.60;;;3.53;;
28756;SDS011;44294;48.282;14.282;2024-03-17T00:48:27;6.37;;;3.80;;
28756;SDS011;44294;48.282;14.282;2024-03-17T00:51:15;3.90;;;3.50;;
28756;SDS011;44294;48.282;14.282;2024-03-17T00:54:03;4.63;;;3.70;;
28756;SDS011;44294;48.282;14.282;2024-03-17T00:56:50;5.27;;;3.40;;
28756;SDS011;44294;48.282;14.282;2024-03-17T00:59:37;4.20;;;3.80;;
28756;SDS011;44294;48.282;14.282;2024-03-17T01:02:25;6.93;;;4.30;;
28756;SDS011;44294;48.282;14.282;2024-03-17T01:05:12;5.13;;;3.90;;
28756;SDS011;44294;48.282;14.282;2024-03-17T01:07:59;22.63;;;15.13;;
28756;SDS011;44294;48.282;14.282;2024-03-17T01:10:47;5.03;;;4.30;;
28756;SDS011;44294;48.282;14.282;2024-03-17T01:13:37;5.33;;;4.20;;
28756;SDS011;44294;48.282;14.282;2024-03-17T01:16:26;6.00;;;4.20;;
28756;SDS011;44294;48.282;14.282;2024-03-17T01:19:14;7.70;;;4.83;;
28756;SDS011;44294;48.282;14.282;2024-03-17T01:22:01;6.60;;;4.37;;
28756;SDS011;44294;48.282;14.282;2024-03-17T01:24:48;7.73;;;4.50;;
28756;SDS011;44294;48.282;14.282;2024-03-17T01:27:36;5.70;;;4.27;;
28756;SDS011;44294;48.282;14.282;2024-03-17T01:30:23;6.13;;;3.97;;
28756;SDS011;44294;48.282;14.282;2024-03-17T01:33:10;4.83;;;3.97;;
28756;SDS011;44294;48.282;14.282;2024-03-17T01:35:58;6.57;;;4.53;;
28756;SDS011;44294;48.282;14.282;2024-03-17T01:38:45;7.40;;;4.17;;
28756;SDS011;44294;48.282;14.282;2024-03-17T01:41:33;6.60;;;5.00;;
28756;SDS011;44294;48.282;14.282;2024-03-17T01:44:24;6.23;;;4.30;;
28756;SDS011;44294;48.282;14.282;2024-03-17T01:47:12;5.97;;;4.47;;
28756;SDS011;44294;48.282;14.282;2024-03-17T01:49:59;5.60;;;4.60;;
28756;SDS011;44294;48.282;14.282;2024-03-17T01:52:47;6.13;;;4.27;;
28756;SDS011;44294;48.282;14.282;2024-03-17T01:55:38;5.13;;;4.30;;
28756;SDS011;44294;48.282;14.282;2024-03-17T01:58:29;6.40;;;4.47;;
28756;SDS011;44294;48.282;14.282;2024-03-17T02:01:13;5.50;;;4.50;;
28756;SDS011;44294;48.282;14.282;2024-03-17T02:04:04;6.07;;;4.47;;
28756;SDS011;44294;48.282;14.282;2024-03-17T02:06:52;5.67;;;4.77;;
28756;SDS011;44294;48.282;14.282;2024-03-17T02:09:39;5.53;;;4.77;;
28756;SDS011;44294;48.282;14.282;2024-03-17T02:12:28;7.17;;;4.73;;
28756;SDS011;44294;48.282;14.282;2024-03-17T02:15:15;9.17;;;4.97;;
28756;SDS011;44294;48.282;14.282;2024-03-17T02:18:03;7.70;;;4.73;;
28756;SDS011;44294;48.282;14.282;2024-03-17T02:20:51;8.90;;;5.30;;
28756;SDS011;44294;48.282;14.282;2024-03-17T02:23:42;7.97;;;5.30;;
28756;SDS011;44294;48.282;14.282;2024-03-17T02:26:30;7.33;;;5.30;;
28756;SDS011;44294;48.282;14.282;2024-03-17T02:29:17;6.33;;;4.90;;
28756;SDS011;44294;48.282;14.282;2024-03-17T02:32:05;7.10;;;5.00;;
28756;SDS011;44294;48.282;14.282;2024-03-17T02:34:56;8.67;;;6.00;;
28756;SDS011;44294;48.282;14.282;2024-03-17T02:37:43;8.70;;;5.83;;
28756;SDS011;44294;48.282;14.282;2024-03-17T02:40:30;7.20;;;5.37;;
28756;SDS011;44294;48.282;14.282;2024-03-17T02:43:17;8.57;;;5.70;;
28756;SDS011;44294;48.282;14.282;2024-03-17T02:46:05;7.60;;;5.23;;
28756;SDS011;44294;48.282;14.282;2024-03-17T02:48:54;7.47;;;5.40;;
28756;SDS011;44294;48.282;14.282;2024-03-17T02:51:42;10.10;;;5.53;;
28756;SDS011;44294;48.282;14.282;2024-03-17T02:54:30;7.87;;;5.50;;
28756;SDS011;44294;48.282;14.282;2024-03-17T02:57:17;8.30;;;5.50;;
28756;SDS011;44294;48.282;14.282;2024-03-17T03:00:05;8.43;;;6.10;;
28756;SDS011;44294;48.282;14.282;2024-03-17T03:02:54;8.43;;;5.93;;
28756;SDS011;44294;48.282;14.282;2024-03-17T03:05:41;7.67;;;5.67;;
28756;SDS011;44294;48.282;14.282;2024-03-17T03:08:29;7.73;;;5.70;;
28756;SDS011;44294;48.282;14.282;2024-03-17T03:11:17;7.50;;;5.60;;
28756;SDS011;44294;48.282;14.282;2024-03-17T03:14:04;8.00;;;5.50;;
28756;SDS011;44294;48.282;14.282;2024-03-17T03:16:51;7.93;;;5.77;;
28756;SDS011;44294;48.282;14.282;2024-03-17T03:19:39;8.90;;;5.70;;
28756;SDS011;44294;48.282;14.282;2024-03-17T03:22:26;8.57;;;5.67;;
28756;SDS011;44294;48.282;14.282;2024-03-17T03:25:14;7.80;;;5.73;;
28756;SDS011;44294;48.282;14.282;2024-03-17T03:28:01;7.80;;;5.93;;
28756;SDS011;44294;48.282;14.282;2024-03-17T03:30:49;8.50;;;5.80;;
28756;SDS011;44294;48.282;14.282;2024-03-17T03:33:37;9.27;;;6.00;;
28756;SDS011;44294;48.282;14.282;2024-03-17T03:36:24;8.83;;;5.70;;
28756;SDS011;44294;48.282;14.282;2024-03-17T03:39:12;8.23;;;6.07;;
28756;SDS011;44294;48.282;14.282;2024-03-17T03:42:00;9.17;;;5.67;;
28756;SDS011;44294;48.282;14.282;2024-03-17T03:44:48;8.63;;;6.33;;
28756;SDS011;44294;48.282;14.282;2024-03-17T03:47:36;8.83;;;5.97;;
28756;SDS011;44294;48.282;14.282;2024-03-17T03:50:23;9.07;;;6.53;;
28756;SDS011;44294;48.282;14.282;2024-03-17T03:53:10;10.43;;;6.47;;
28756;SDS011;44294;48.282;14.282;2024-03-17T03:55:58;8.70;;;6.50;;
28756;SDS011;44294;48.282;14.282;2024-03-17T03:58:48;8.97;;;6.40;;
28756;SDS011;44294;48.282;14.282;2024-03-17T04:01:36;8.30;;;6.17;;
28756;SDS011;44294;48.282;14.282;2024-03-17T04:04:24;8.70;;;6.40;;
28756;SDS011;44294;48.282;14.282;2024-03-17T04:07:11;8.30;;;5.90;;
28756;SDS011;44294;48.282;14.282;2024-03-17T04:09:58;8.63;;;6.20;;
28756;SDS011;44294;48.282;14.282;2024-03-17T04:12:46;8.13;;;6.20;;
28756;SDS011;44294;48.282;14.282;2024-03-17T04:15:34;10.17;;;6.63;;
28756;SDS011;44294;48.282;14.282;2024-03-17T04:18:21;9.30;;;6.60;;
28756;SDS011;44294;48.282;14.282;2024-03-17T04:21:08;10.50;;;6.60;;
28756;SDS011;44294;48.282;14.282;2024-03-17T04:23:56;9.63;;;6.57;;
28756;SDS011;44294;48.282;14.282;2024-03-17T04:26:43;9.73;;;6.70;;
28756;SDS011;44294;48.282;14.282;2024-03-17T04:29:30;8.60;;;6.60;;
28756;SDS011;44294;48.282;14.282;2024-03-17T04:32:18;8.90;;;6.90;;
28756;SDS011;44294;48.282;14.282;2024-03-17T04:35:05;9.30;;;6.70;;
28756;SDS011;44294;48.282;14.282;2024-03-17T04:37:53;10.70;;;7.07;;
28756;SDS011;44294;48.282;14.282;2024-03-17T04:40:42;11.07;;;7.33;;
28756;SDS011;44294;48.282;14.282;2024-03-17T04:43:34;9.53;;;6.80;;
28756;SDS011;44294;48.282;14.282;2024-03-17T04:46:18;8.77;;;6.40;;
28756;SDS011;44294;48.282;14.282;2024-03-17T04:49:06;10.97;;;6.80;;
28756;SDS011;44294;48.282;14.282;2024-03-17T04:51:54;9.30;;;6.80;;
28756;SDS011;44294;48.282;14.282;2024-03-17T04:54:42;9.87;;;6.90;;
28756;SDS011;44294;48.282;14.282;2024-03-17T04:57:29;8.87;;;6.40;;
28756;SDS011;44294;48.282;14.282;2024-03-17T05:00:16;9.47;;;6.70;;
28756;SDS011;44294;48.282;14.282;2024-03-17T05:03:05;10.03;;;6.40;;
28756;SDS011;44294;48.282;14.282;2024-03-17T05:05:59;14.57;;;7.50;;
28756;SDS011;44294;48.282;14.282;2024-03-17T05:08:49;10.03;;;6.80;;
28756;SDS011;44294;48.282;14.282;2024-03-17T05:11:36;9.50;;;6.90;;
28756;SDS011;44294;48.282;14.282;2024-03-17T05:14:24;11.00;;;6.87;;
28756;SDS011;44294;48.282;14.282;2024-03-17T05:17:12;10.40;;;7.03;;
28756;SDS011;44294;48.282;14.282;2024-03-17T05:19:59;9.80;;;7.10;;
28756;SDS011;44294;48.282;14.282;2024-03-17T05:22:48;12.70;;;6.77;;
28756;SDS011;44294;48.282;14.282;2024-03-17T05:25:35;10.23;;;7.10;;
28756;SDS011;44294;48.282;14.282;2024-03-17T05:28:24;10.07;;;7.27;;
28756;SDS011;44294;48.282;14.282;2024-03-17T05:31:12;10.67;;;7.20;;
28756;SDS011;44294;48.282;14.282;2024-03-17T05:34:01;9.87;;;7.20;;
28756;SDS011;44294;48.282;14.282;2024-03-17T05:36:50;11.30;;;7.73;;
28756;SDS011;44294;48.282;14.282;2024-03-17T05:39:37;10.77;;;7.63;;
28756;SDS011;44294;48.282;14.282;2024-03-17T05:42:24;12.07;;;7.47;;
28756;SDS011;44294;48.282;14.282;2024-03-17T05:45:12;11.40;;;8.00;;
28756;SDS011;44294;48.282;14.282;2024-03-17T05:47:59;10.50;;;7.43;;
28756;SDS011;44294;48.282;14.282;2024-03-17T05:50:48;11.67;;;7.20;;
28756;SDS011;44294;48.282;14.282;2024-03-17T05:53:37;10.30;;;7.27;;
28756;SDS011;44294;48.282;14.282;2024-03-17T05:56:27;10.53;;;7.03;;
28756;SDS011;44294;48.282;14.282;2024-03-17T05:59:14;11.60;;;7.33;;
28756;SDS011;44294;48.282;14.282;2024-03-17T06:02:01;11.40;;;7.40;;
28756;SDS011;44294;48.282;14.282;2024-03-17T06:04:49;11.27;;;7.70;;
28756;SDS011;44294;48.282;14.282;2024-03-17T06:07:36;11.00;;;7.60;;
28756;SDS011;44294;48.282;14.282;2024-03-17T06:10:24;10.13;;;7.00;;
28756;SDS011;44294;48.282;14.282;2024-03-17T06:13:12;12.10;;;7.00;;
28756;SDS011;44294;48.282;14.282;2024-03-17T06:16:04;12.47;;;8.57;;
28756;SDS011;44294;48.282;14.282;2024-03-17T06:18:51;11.70;;;8.37;;
28756;SDS011;44294;48.282;14.282;2024-03-17T06:21:39;12.67;;;8.40;;
28756;SDS011;44294;48.282;14.282;2024-03-17T06:24:26;11.23;;;7.87;;
28756;SDS011;44294;48.282;14.282;2024-03-17T06:27:13;10.20;;;7.23;;
28756;SDS011;44294;48.282;14.282;2024-03-17T06:30:01;10.10;;;6.83;;
28756;SDS011;44294;48.282;14.282;2024-03-17T06:32:51;9.57;;;6.80;;
28756;SDS011;44294;48.282;14.282;2024-03-17T06:35:39;9.60;;;6.37;;
28756;SDS011;44294;48.282;14.282;2024-03-17T06:38:26;9.10;;;6.97;;
28756;SDS011;44294;48.282;14.282;2024-03-17T06:41:13;7.73;;;6.13;;
28756;SDS011;44294;48.282;14.282;2024-03-17T06:44:01;10.53;;;6.97;;
28756;SDS011;44294;48.282;14.282;2024-03-17T06:46:48;10.53;;;7.07;;
28756;SDS011;44294;48.282;14.282;2024-03-17T06:49:35;9.30;;;6.43;;
28756;SDS011;44294;48.282;14.282;2024-03-17T06:52:23;10.37;;;7.13;;
28756;SDS011;44294;48.282;14.282;2024-03-17T06:55:10;9.47;;;6.70;;
28756;SDS011;44294;48.282;14.282;2024-03-17T06:57:58;9.33;;;7.10;;
28756;SDS011;44294;48.282;14.282;2024-03-17T07:00:52;9.60;;;6.60;;
28756;SDS011;44294;48.282;14.282;2024-03-17T07:03:35;8.03;;;6.23;;
28756;SDS011;44294;48.282;14.282;2024-03-17T07:06:22;10.07;;;6.97;;
28756;SDS011;44294;48.282;14.282;2024-03-17T07:09:09;9.03;;;6.60;;
28756;SDS011;44294;48.282;14.282;2024-03-17T07:11:57;8.50;;;6.50;;
28756;SDS011;44294;48.282;14.282;2024-03-17T07:14:44;11.57;;;6.87;;
28756;SDS011;44294;48.282;14.282;2024-03-17T07:17:32;9.87;;;6.63;;
28756;SDS011;44294;48.282;14.282;2024-03-17T07:20:20;9.83;;;6.77;;
28756;SDS011;44294;48.282;14.282;2024-03-17T07:23:07;9.10;;;6.97;;
28756;SDS011;44294;48.282;14.282;2024-03-17T07:25:55;9.47;;;7.27;;
28756;SDS011;44294;48.282;14.282;2024-03-17T07:28:42;9.60;;;7.30;;
28756;SDS011;44294;48.282;14.282;2024-03-17T07:31:31;8.53;;;6.60;;
28756;SDS011;44294;48.282;14.282;2024-03-17T07:34:18;9.30;;;6.30;;
28756;SDS011;44294;48.282;14.282;2024-03-17T07:37:06;9.33;;;6.40;;
28756;SDS011;44294;48.282;14.282;2024-03-17T07:39:53;9.20;;;6.50;;
28756;SDS011;44294;48.282;14.282;2024-03-17T07:42:40;9.90;;;6.80;;
28756;SDS011;44294;48.282;14.282;2024-03-17T07:45:28;8.57;;;6.30;;
28756;SDS011;44294;48.282;14.282;2024-03-17T07:48:16;8.33;;;6.07;;
28756;SDS011;44294;48.282;14.282;2024-03-17T07:51:04;8.83;;;6.43;;
28756;SDS011;44294;48.282;14.282;2024-03-17T07:53:54;8.53;;;6.10;;
28756;SDS011;44294;48.282;14.282;2024-03-17T07:56:42;8.40;;;6.33;;
28756;SDS011;44294;48.282;14.282;2024-03-17T07:59:29;9.03;;;6.20;;
28756;SDS011;44294;48.282;14.282;2024-03-17T08:02:17;7.37;;;5.80;;
28756;SDS011;44294;48.282;14.282;2024-03-17T08:05:04;6.93;;;5.27;;
28756;SDS011;44294;48.282;14.282;2024-03-17T08:07:51;8.73;;;5.70;;
28756;SDS011;44294;48.282;14.282;2024-03-17T08:10:39;6.53;;;5.03;;
28756;SDS011;44294;48.282;14.282;2024-03-17T08:13:26;6.90;;;5.00;;
28756;SDS011;44294;48.282;14.282;2024-03-17T08:16:15;6.07;;;5.00;;
28756;SDS011;44294;48.282;14.282;2024-03-17T08:19:05;5.57;;;4.40;;
28756;SDS011;44294;48.282;14.282;2024-03-17T08:21:53;6.23;;;4.70;;
28756;SDS011;44294;48.282;14.282;2024-03-17T08:24:40;6.20;;;4.90;;
28756;SDS011;44294;48.282;14.282;2024-03-17T08:27:28;5.60;;;4.30;;
28756;SDS011;44294;48.282;14.282;2024-03-17T08:30:15;5.40;;;4.00;;
28756;SDS011;44294;48.282;14.282;2024-03-17T08:33:03;4.60;;;3.97;;
28756;SDS011;44294;48.282;14.282;2024-03-17T08:36:01;5.33;;;3.90;;
28756;SDS011;44294;48.282;14.282;2024-03-17T08:38:44;5.23;;;3.50;;
28756;SDS011;44294;48.282;14.282;2024-03-17T08:41:31;4.27;;;3.53;;
28756;SDS011;44294;48.282;14.282;2024-03-17T08:44:18;5.13;;;3.63;;
28756;SDS011;44294;48.282;14.282;2024-03-17T08:47:06;4.50;;;3.53;;
28756;SDS011;44294;48.282;14.282;2024-03-17T08:49:53;3.43;;;3.00;;
28756;SDS011;44294;48.282;14.282;2024-03-17T08:52:40;3.70;;;2.90;;
28756;SDS011;44294;48.282;14.282;2024-03-17T08:55:28;2.93;;;2.63;;
28756;SDS011;44294;48.282;14.282;2024-03-17T08:58:15;4.13;;;3.00;;
28756;SDS011;44294;48.282;14.282;2024-03-17T09:01:03;3.00;;;2.60;;
28756;SDS011;44294;48.282;14.282;2024-03-17T09:03:51;3.70;;;3.20;;
28756;SDS011;44294;48.282;14.282;2024-03-17T09:06:40;3.20;;;2.90;;
28756;SDS011;44294;48.282;14.282;2024-03-17T09:09:28;3.90;;;3.50;;
28756;SDS011;44294;48.282;14.282;2024-03-17T09:12:15;4.53;;;3.50;;
28756;SDS011;44294;48.282;14.282;2024-03-17T09:15:02;4.10;;;3.30;;
28756;SDS011;44294;48.282;14.282;2024-03-17T09:17:51;4.20;;;3.70;;
28756;SDS011;44294;48.282;14.282;2024-03-17T09:20:38;5.03;;;3.40;;
28756;SDS011;44294;48.282;14.282;2024-03-17T09:23:26;4.13;;;3.73;;
28756;SDS011;44294;48.282;14.282;2024-03-17T09:26:14;4.80;;;3.60;;
28756;SDS011;44294;48.282;14.282;2024-03-17T09:29:03;5.17;;;4.03;;
28756;SDS011;44294;48.282;14.282;2024-03-17T09:31:50;4.10;;;3.70;;
28756;SDS011;44294;48.282;14.282;2024-03-17T09:34:37;4.73;;;3.90;;
28756;SDS011;44294;48.282;14.282;2024-03-17T09:37:25;4.60;;;3.80;;
28756;SDS011;44294;48.282;14.282;2024-03-17T09:40:15;4.00;;;3.60;;
28756;SDS011;44294;48.282;14.282;2024-03-17T09:43:02;4.70;;;4.13;;
28756;SDS011;44294;48.282;14.282;2024-03-17T09:45:50;4.80;;;3.63;;
28756;SDS011;44294;48.282;14.282;2024-03-17T09:48:39;4.40;;;3.83;;
28756;SDS011;44294;48.282;14.282;2024-03-17T09:51:27;5.20;;;3.83;;
28756;SDS011;44294;48.282;14.282;2024-03-17T09:54:17;4.10;;;3.70;;
28756;SDS011;44294;48.282;14.282;2024-03-17T09:57:07;6.07;;;4.10;;
28756;SDS011;44294;48.282;14.282;2024-03-17T09:59:52;4.10;;;3.70;;
28756;SDS011;44294;48.282;14.282;2024-03-17T10:02:43;4.20;;;3.80;;
28756;SDS011;44294;48.282;14.282;2024-03-17T10:05:31;4.30;;;3.90;;
28756;SDS011;44294;48.282;14.282;2024-03-17T10:08:22;8.77;;;5.50;;
28756;SDS011;44294;48.282;14.282;2024-03-17T10:11:10;8.10;;;6.93;;
28756;SDS011;44294;48.282;14.282;2024-03-17T10:14:04;7.10;;;5.60;;
28756;SDS011;44294;48.282;14.282;2024-03-17T10:16:48;4.33;;;3.80;;
28756;SDS011;44294;48.282;14.282;2024-03-17T10:19:35;4.67;;;3.80;;
28756;SDS011;44294;48.282;14.282;2024-03-17T10:22:24;4.43;;;3.63;;
28756;SDS011;44294;48.282;14.282;2024-03-17T10:25:12;11.33;;;7.60;;
28756;SDS011;44294;48.282;14.282;2024-03-17T10:27:59;4.37;;;3.70;;
28756;SDS011;44294;48.282;14.282;2024-03-17T10:30:58;4.97;;;3.90;;
28756;SDS011;44294;48.282;14.282;2024-03-17T10:33:42;5.63;;;4.10;;
28756;SDS011;44294;48.282;14.282;2024-03-17T10:36:30;9.13;;;5.30;;
28756;SDS011;44294;48.282;14.282;2024-03-17T10:39:24;4.60;;;4.00;;
28756;SDS011;44294;48.282;14.282;2024-03-17T10:42:13;4.17;;;3.60;;
28756;SDS011;44294;48.282;14.282;2024-03-17T10:45:01;4.30;;;3.60;;
28756;SDS011;44294;48.282;14.282;2024-03-17T10:47:49;4.50;;;3.90;;
28756;SDS011;44294;48.282;14.282;2024-03-17T10:50:37;4.93;;;4.03;;
28756;SDS011;44294;48.282;14.282;2024-03-17T10:53:25;5.70;;;4.10;;
28756;SDS011;44294;48.282;14.282;2024-03-17T10:56:14;6.60;;;4.40;;
28756;SDS011;44294;48.282;14.282;2024-03-17T10:59:03;5.67;;;4.40;;
28756;SDS011;44294;48.282;14.282;2024-03-17T11:01:51;6.63;;;4.50;;
28756;SDS011;44294;48.282;14.282;2024-03-17T11:04:39;6.40;;;4.53;;
28756;SDS011;44294;48.282;14.282;2024-03-17T11:07:27;6.23;;;4.30;;
28756;SDS011;44294;48.282;14.282;2024-03-17T11:10:15;4.80;;;4.00;;
28756;SDS011;44294;48.282;14.282;2024-03-17T11:13:03;4.80;;;3.80;;
28756;SDS011;44294;48.282;14.282;2024-03-17T11:15:51;5.47;;;3.83;;
28756;SDS011;44294;48.282;14.282;2024-03-17T11:18:40;4.87;;;3.80;;
28756;SDS011;44294;48.282;14.282;2024-03-17T11:21:28;5.47;;;4.10;;
28756;SDS011;44294;48.282;14.282;2024-03-17T11:24:20;4.67;;;3.90;;
28756;SDS011;44294;48.282;14.282;2024-03-17T11:39:11;6.30;;;3.80;;
28756;SDS011;44294;48.282;14.282;2024-03-17T11:42:06;4.83;;;3.40;;
28756;SDS011;44294;48.282;14.282;2024-03-17T11:45:05;6.33;;;4.13;;
28756;SDS011;44294;48.282;14.282;2024-03-17T11:47:49;5.00;;;4.00;;
28756;SDS011;44294;48.282;14.282;2024-03-17T11:50:36;6.17;;;3.53;;
28756;SDS011;44294;48.282;14.282;2024-03-17T11:53:24;5.17;;;4.03;;
28756;SDS011;44294;48.282;14.282;2024-03-17T11:56:13;6.77;;;4.57;;
28756;SDS011;44294;48.282;14.282;2024-03-17T11:59:05;6.03;;;3.90;;
28756;SDS011;44294;48.282;14.282;2024-03-17T12:01:54;5.50;;;3.67;;
28756;SDS011;44294;48.282;14.282;2024-03-17T12:04:41;9.63;;;3.50;;
28756;SDS011;44294;48.282;14.282;2024-03-17T12:07:29;5.00;;;3.83;;
28756;SDS011;44294;48.282;14.282;2024-03-17T12:10:17;3.53;;;3.20;;
28756;SDS011;44294;48.282;14.282;2024-03-17T12:13:04;5.60;;;3.47;;
28756;SDS011;44294;48.282;14.282;2024-03-17T12:16:09;4.13;;;3.23;;
28756;SDS011;44294;48.282;14.282;2024-03-17T12:18:42;4.07;;;3.27;;
28756;SDS011;44294;48.282;14.282;2024-03-17T12:21:32;4.23;;;3.40;;
28756;SDS011;44294;48.282;14.282;2024-03-17T12:24:22;4.13;;;3.30;;
28756;SDS011;44294;48.282;14.282;2024-03-17T12:27:09;3.40;;;3.10;;
28756;SDS011;44294;48.282;14.282;2024-03-17T12:29:58;3.20;;;2.80;;
28756;SDS011;44294;48.282;14.282;2024-03-17T12:32:46;4.07;;;2.80;;
28756;SDS011;44294;48.282;14.282;2024-03-17T12:35:36;4.80;;;3.37;;
28756;SDS011;44294;48.282;14.282;2024-03-17T12:38:23;4.87;;;3.60;;
28756;SDS011;44294;48.282;14.282;2024-03-17T12:41:17;27.37;;;10.70;;
28756;SDS011;44294;48.282;14.282;2024-03-17T12:44:04;4.77;;;3.37;;
28756;SDS011;44294;48.282;14.282;2024-03-17T12:47:02;4.10;;;3.00;;
28756;SDS011;44294;48.282;14.282;2024-03-17T12:49:50;4.10;;;2.80;;
28756;SDS011;44294;48.282;14.282;2024-03-17T12:52:39;3.60;;;2.80;;
28756;SDS011;44294;48.282;14.282;2024-03-17T12:55:26;3.10;;;2.40;;
28756;SDS011;44294;48.282;14.282;2024-03-17T12:58:31;3.23;;;2.80;;
28756;SDS011;44294;48.282;14.282;2024-03-17T13:01:37;6.13;;;3.00;;
28756;SDS011;44294;48.282;14.282;2024-03-17T13:04:24;3.63;;;2.80;;
28756;SDS011;44294;48.282;14.282;2024-03-17T13:07:11;3.33;;;2.70;;
28756;SDS011;44294;48.282;14.282;2024-03-17T13:09:58;3.83;;;2.60;;
28756;SDS011;44294;48.282;14.282;2024-03-17T13:12:46;3.80;;;2.83;;
28756;SDS011;44294;48.282;14.282;2024-03-17T13:15:34;2.97;;;2.63;;
28756;SDS011;44294;48.282;14.282;2024-03-17T13:18:24;2.53;;;2.27;;
28756;SDS011;44294;48.282;14.282;2024-03-17T13:21:12;3.53;;;2.50;;
28756;SDS011;44294;48.282;14.282;2024-03-17T13:23:59;2.37;;;2.00;;
28756;SDS011;44294;48.282;14.282;2024-03-17T13:26:46;3.33;;;2.20;;
28756;SDS011;44294;48.282;14.282;2024-03-17T13:29:35;2.50;;;2.30;;
28756;SDS011;44294;48.282;14.282;2024-03-17T13:32:23;2.40;;;2.20;;
28756;SDS011;44294;48.282;14.282;2024-03-17T13:35:15;4.27;;;2.40;;
28756;SDS011;44294;48.282;14.282;2024-03-17T13:38:00;2.40;;;2.20;;
28756;SDS011;44294;48.282;14.282;2024-03-17T13:40:48;2.47;;;2.27;;
28756;SDS011;44294;48.282;14.282;2024-03-17T13:43:36;1.80;;;1.70;;
28756;SDS011;44294;48.282;14.282;2024-03-17T13:46:23;1.90;;;1.80;;
28756;SDS011;44294;48.282;14.282;2024-03-17T13:49:10;2.17;;;1.97;;
28756;SDS011;44294;48.282;14.282;2024-03-17T13:51:58;2.50;;;1.83;;
28756;SDS011;44294;48.282;14.282;2024-03-17T13:54:45;2.10;;;1.90;;
28756;SDS011;44294;48.282;14.282;2024-03-17T13:57:33;3.53;;;2.10;;
28756;SDS011;44294;48.282;14.282;2024-03-17T14:00:21;2.07;;;1.80;;
28756;SDS011;44294;48.282;14.282;2024-03-17T14:03:08;2.10;;;1.90;;
28756;SDS011;44294;48.282;14.282;2024-03-17T14:05:56;2.30;;;2.00;;
28756;SDS011;44294;48.282;14.282;2024-03-17T14:08:43;3.97;;;1.80;;
28756;SDS011;44294;48.282;14.282;2024-03-17T14:11:31;1.97;;;1.77;;
28756;SDS011;44294;48.282;14.282;2024-03-17T14:14:19;2.17;;;1.97;;
28756;SDS011;44294;48.282;14.282;2024-03-17T14:17:06;5.83;;;2.10;;
28756;SDS011;44294;48.282;14.282;2024-03-17T14:19:54;5.67;;;2.30;;
28756;SDS011;44294;48.282;14.282;2024-03-17T14:22:41;3.50;;;2.33;;
28756;SDS011;44294;48.282;14.282;2024-03-17T14:25:29;2.70;;;2.30;;
28756;SDS011;44294;48.282;14.282;2024-03-17T14:28:16;3.23;;;1.87;;
28756;SDS011;44294;48.282;14.282;2024-03-17T14:31:05;19.73;;;15.70;;
28756;SDS011;44294;48.282;14.282;2024-03-17T14:33:52;5.87;;;4.00;;
28756;SDS011;44294;48.282;14.282;2024-03-17T14:36:40;4.20;;;3.27;;
28756;SDS011;44294;48.282;14.282;2024-03-17T14:39:27;2.80;;;2.00;;
28756;SDS011;44294;48.282;14.282;2024-03-17T14:42:15;2.30;;;1.80;;
28756;SDS011;44294;48.282;14.282;2024-03-17T14:45:03;3.33;;;2.10;;
28756;SDS011;44294;48.282;14.282;2024-03-17T14:47:50;2.70;;;2.03;;
28756;SDS011;44294;48.282;14.282;2024-03-17T14:50:40;2.13;;;1.80;;
28756;SDS011;44294;48.282;14.282;2024-03-17T14:53:28;2.10;;;1.90;;
28756;SDS011;44294;48.282;14.282;2024-03-17T14:56:15;2.77;;;1.90;;
28756;SDS011;44294;48.282;14.282;2024-03-17T14:59:03;3.10;;;2.03;;
28756;SDS011;44294;48.282;14.282;2024-03-17T15:01:52;2.13;;;1.83;;
28756;SDS011;44294;48.282;14.282;2024-03-17T15:04:39;2.83;;;1.80;;
28756;SDS011;44294;48.282;14.282;2024-03-17T15:07:26;3.30;;;2.40;;
28756;SDS011;44294;48.282;14.282;2024-03-17T15:10:14;7.23;;;4.10;;
28756;SDS011;44294;48.282;14.282;2024-03-17T15:13:02;4.97;;;2.40;;
28756;SDS011;44294;48.282;14.282;2024-03-17T15:15:49;2.93;;;2.30;;
28756;SDS011;44294;48.282;14.282;2024-03-17T15:18:38;2.60;;;1.80;;
28756;SDS011;44294;48.282;14.282;2024-03-17T15:21:26;2.63;;;1.90;;
28756;SDS011;44294;48.282;14.282;2024-03-17T15:24:13;2.27;;;1.77;;
28756;SDS011;44294;48.282;14.282;2024-03-17T15:27:00;2.00;;;1.80;;
28756;SDS011;44294;48.282;14.282;2024-03-17T15:29:48;1.80;;;1.70;;
28756;SDS011;44294;48.282;14.282;2024-03-17T15:32:35;2.10;;;1.73;;
28756;SDS011;44294;48.282;14.282;2024-03-17T15:35:23;2.10;;;1.80;;
28756;SDS011;44294;48.282;14.282;2024-03-17T15:38:11;3.93;;;2.20;;
28756;SDS011;44294;48.282;14.282;2024-03-17T15:40:58;2.97;;;2.53;;
28756;SDS011;44294;48.282;14.282;2024-03-17T15:43:46;6.97;;;4.50;;
28756;SDS011;44294;48.282;14.282;2024-03-17T15:46:34;2.60;;;2.17;;
28756;SDS011;44294;48.282;14.282;2024-03-17T15:49:21;1.90;;;1.70;;
28756;SDS011;44294;48.282;14.282;2024-03-17T15:52:09;2.47;;;1.80;;
28756;SDS011;44294;48.282;14.282;2024-03-17T15:54:56;2.50;;;1.80;;
28756;SDS011;44294;48.282;14.282;2024-03-17T15:57:45;2.37;;;1.70;;
28756;SDS011;44294;48.282;14.282;2024-03-17T16:00:32;3.40;;;1.80;;
28756;SDS011;44294;48.282;14.282;2024-03-17T16:03:21;1.70;;;1.60;;
28756;SDS011;44294;48.282;14.282;2024-03-17T16:06:11;1.70;;;1.60;;
28756;SDS011;44294;48.282;14.282;2024-03-17T16:08:59;2.50;;;1.80;;
28756;SDS011;44294;48.282;14.282;2024-03-17T16:11:46;2.37;;;1.80;;
28756;SDS011;44294;48.282;14.282;2024-03-17T16:14:34;3.17;;;1.80;;
28756;SDS011;44294;48.282;14.282;2024-03-17T16:17:25;1.93;;;1.60;;
28756;SDS011;44294;48.282;14.282;2024-03-17T16:20:18;1.90;;;1.70;;
28756;SDS011;44294;48.282;14.282;2024-03-17T16:23:02;3.93;;;1.70;;
28756;SDS011;44294;48.282;14.282;2024-03-17T16:25:50;2.03;;;1.60;;
28756;SDS011;44294;48.282;14.282;2024-03-17T16:28:39;1.80;;;1.70;;
28756;SDS011;44294;48.282;14.282;2024-03-17T16:31:27;2.97;;;1.80;;
28756;SDS011;44294;48.282;14.282;2024-03-17T16:34:15;3.47;;;1.60;;
28756;SDS011;44294;48.282;14.282;2024-03-17T16:37:04;2.13;;;1.80;;
28756;SDS011;44294;48.282;14.282;2024-03-17T16:39:51;2.10;;;1.60;;
28756;SDS011;44294;48.282;14.282;2024-03-17T16:42:40;2.07;;;1.70;;
28756;SDS011;44294;48.282;14.282;2024-03-17T16:45:27;2.33;;;1.60;;
28756;SDS011;44294;48.282;14.282;2024-03-17T16:48:15;2.97;;;1.70;;